Strona główna
METAR-TAF:

METAR-TAF

Lotnisko :

Ndżamena, Czad

Port lotniczy Ndżamena

Szerokość geograficzna: 12-08N, Długość geograficzna: 015-02E, wysokość: 295 m

Aktualna obserwacja pogody

Raport powstał 46 minut temu, godzina 17:00 UTC
Wiatr 7 kt od północ
Temperatura 27°C
Wilgotność 8%
Ciśnienie 1010 hPa
Widzialność 10 km lub więcej
Brak chmur poniżej 1500 m i brak chmur cumulonimbus

METAR: FTTJ 171700Z 01007KT CAVOK 27/M10 Q1010 NOSIG

czas: 18:46 (17:46 UTC)

Prognoza

Raport powstał 46 minut temu, godzina 17:00 UTC
Prognoza ważna od 17 godzina 18 UTC do 18 godzina 24 UTC
Wiatr 6 kt od północ
Widzialność 10 km lub więcej
Brak chmur poniżej 1500 m i brak chmur cumulonimbus
Przejściowo
od 18 godzina 09 UTC do 18 godzina 15 UTC
Wiatr 11 kt od wschodnio-północny wschód

TAF: FTTJ 171700Z 1718/1824 36006KT CAVOK TEMPO 1809/1815 06011KT

Obserwacja i prognoza pogody dla ponad 4000 lotnisk (raport METAR i TAF).

Dostępne stacje oznaczono żółtymi i czerwonymi punktami na mapie.

Najedź kursorem aby zobaczyć nazwę stacji.

Kliknij aby zobaczyć obserwacje i prognozy pogody.

Aby zmienić mapę: kliknij na zielony przycisk z czarnym krzyżykiem, aby powiększyć; na zielony przycisk z myślnikiem, aby pomniejszyć; na zielone strzałki, aby przejść do map sąsiednich.


METAR-TAF: